createdAt,value
2019-02-05T00:00:32.060Z,0.00
2019-02-05T00:02:36.255Z,0.00
2019-02-05T00:03:36.212Z,0.00
2019-02-05T00:05:40.388Z,0.00
2019-02-05T00:06:40.359Z,0.00
2019-02-05T00:08:44.544Z,0.00
2019-02-05T00:09:44.504Z,0.00
2019-02-05T00:11:48.684Z,0.00
2019-02-05T00:12:48.658Z,0.00
2019-02-05T00:14:52.843Z,0.00
2019-02-05T00:15:52.809Z,0.00
2019-02-05T00:17:56.979Z,0.00
2019-02-05T00:18:56.951Z,0.00
2019-02-05T00:21:01.152Z,0.00
2019-02-05T00:22:01.123Z,0.00
2019-02-05T00:24:05.290Z,0.00
2019-02-05T00:25:05.266Z,0.00
2019-02-05T00:27:09.530Z,0.00
2019-02-05T00:28:09.410Z,0.00
2019-02-05T00:30:02.525Z,0.00
2019-02-05T00:31:02.505Z,0.00
2019-02-05T00:33:06.659Z,0.00
2019-02-05T00:34:06.660Z,0.00
2019-02-05T00:36:10.821Z,0.00
2019-02-05T00:37:10.780Z,0.00
2019-02-05T00:39:14.957Z,0.00
2019-02-05T00:40:14.924Z,0.00
2019-02-05T00:42:19.106Z,0.00
2019-02-05T00:43:19.071Z,0.00
2019-02-05T00:45:23.241Z,0.00
2019-02-05T00:46:23.214Z,0.00
2019-02-05T00:48:27.408Z,0.00
2019-02-05T00:49:27.369Z,0.00
2019-02-05T00:51:31.544Z,0.00
2019-02-05T00:52:31.517Z,0.00
2019-02-05T00:54:35.719Z,0.00
2019-02-05T00:55:35.680Z,0.00
2019-02-05T00:57:39.854Z,0.00
2019-02-05T00:58:39.824Z,0.00
2019-02-05T01:00:32.936Z,0.00
2019-02-05T01:01:32.904Z,0.00
2019-02-05T01:03:37.093Z,0.00
2019-02-05T01:04:37.048Z,0.00
2019-02-05T01:06:41.229Z,0.00
2019-02-05T01:07:41.198Z,0.00
2019-02-05T01:09:45.472Z,0.00
2019-02-05T01:10:45.354Z,0.00
2019-02-05T01:12:49.532Z,0.00
2019-02-05T01:13:49.521Z,0.00
2019-02-05T01:15:53.685Z,0.00
2019-02-05T01:16:53.772Z,0.00
2019-02-05T01:18:57.842Z,0.00
2019-02-05T01:19:57.848Z,0.00
2019-02-05T01:22:01.985Z,0.00
2019-02-05T01:23:01.954Z,0.00
2019-02-05T01:25:06.138Z,0.00
2019-02-05T01:26:06.099Z,0.00
2019-02-05T01:28:10.283Z,0.00
2019-02-05T01:29:10.248Z,0.00
2019-02-05T01:31:14.415Z,0.00
2019-02-05T01:32:14.388Z,0.00
2019-02-05T01:34:18.573Z,0.00
2019-02-05T01:35:18.537Z,0.00
2019-02-05T01:37:22.729Z,0.00
2019-02-05T01:38:22.701Z,0.00
2019-02-05T01:40:15.831Z,0.00
2019-02-05T01:41:15.812Z,0.00
2019-02-05T01:43:19.974Z,0.00
2019-02-05T01:44:19.921Z,0.00
2019-02-05T01:46:24.090Z,0.00
2019-02-05T01:47:24.110Z,0.00
2019-02-05T01:49:28.276Z,0.00
2019-02-05T01:50:28.214Z,0.00
2019-02-05T01:52:32.394Z,0.00
2019-02-05T01:53:32.360Z,0.00
2019-02-05T01:55:36.526Z,0.00
2019-02-05T01:56:40.775Z,0.00
2019-02-05T01:58:40.680Z,0.00
2019-02-05T01:59:40.648Z,0.00
2019-02-05T02:01:44.818Z,0.00
2019-02-05T02:02:44.791Z,0.00
2019-02-05T02:04:48.975Z,0.00
2019-02-05T02:05:48.934Z,0.00
2019-02-05T02:07:53.110Z,0.00
2019-02-05T02:08:53.075Z,0.00
2019-02-05T02:10:57.255Z,0.00
2019-02-05T02:11:57.224Z,0.00
2019-02-05T02:14:01.402Z,0.00
2019-02-05T02:15:01.370Z,0.00
2019-02-05T02:17:05.550Z,0.00
2019-02-05T02:18:05.573Z,0.00
2019-02-05T02:19:58.614Z,0.00
2019-02-05T02:20:58.592Z,0.00
2019-02-05T02:23:09.962Z,0.00
2019-02-05T02:24:02.740Z,0.00
2019-02-05T02:26:07.016Z,0.00
2019-02-05T02:27:06.887Z,0.00
2019-02-05T02:29:11.080Z,0.00
2019-02-05T02:30:11.035Z,0.00
2019-02-05T02:32:15.231Z,0.00
2019-02-05T02:33:15.197Z,0.00
2019-02-05T02:35:19.367Z,0.00
2019-02-05T02:36:19.338Z,0.00
2019-02-05T02:38:23.520Z,0.00
2019-02-05T02:39:23.479Z,0.00
2019-02-05T02:41:27.656Z,0.00
2019-02-05T02:42:27.624Z,0.00
2019-02-05T02:44:20.736Z,0.00
2019-02-05T02:45:20.704Z,0.00
2019-02-05T02:47:27.720Z,0.00
2019-02-05T02:48:24.845Z,0.00
2019-02-05T02:50:29.019Z,0.00
2019-02-05T02:51:29.038Z,0.00
2019-02-05T02:53:33.176Z,0.00
2019-02-05T02:54:33.141Z,0.00
2019-02-05T02:56:37.327Z,0.00
2019-02-05T02:57:37.292Z,0.00
2019-02-05T02:59:41.474Z,0.00
2019-02-05T03:00:41.447Z,0.00
2019-02-05T03:02:45.627Z,0.00
2019-02-05T03:03:45.591Z,0.00
2019-02-05T03:05:49.763Z,0.00
2019-02-05T03:06:49.738Z,0.00
2019-02-05T03:08:53.959Z,0.00
2019-02-05T03:09:53.881Z,0.00
2019-02-05T03:11:58.078Z,0.00
2019-02-05T03:12:58.027Z,0.00
2019-02-05T03:15:02.202Z,0.00
2019-02-05T03:16:02.167Z,0.00
2019-02-05T03:18:06.343Z,0.00
2019-02-05T03:19:06.313Z,0.00
2019-02-05T03:21:10.488Z,0.00
2019-02-05T03:22:10.454Z,0.00
2019-02-05T03:24:03.555Z,0.00
2019-02-05T03:25:03.549Z,0.00
2019-02-05T03:27:17.291Z,0.00
2019-02-05T03:28:07.676Z,0.00
2019-02-05T03:30:11.853Z,0.00
2019-02-05T03:31:11.822Z,0.00
2019-02-05T03:33:16.001Z,0.00
2019-02-05T03:34:15.963Z,0.00
2019-02-05T03:36:20.146Z,0.00
2019-02-05T03:37:20.111Z,0.00
2019-02-05T03:39:24.310Z,0.00
2019-02-05T03:40:24.280Z,0.00
2019-02-05T03:42:28.482Z,0.00
2019-02-05T03:43:28.442Z,0.00
2019-02-05T03:45:32.617Z,0.00
2019-02-05T03:46:32.588Z,0.00
2019-02-05T03:48:37.782Z,0.00
2019-02-05T03:49:37.762Z,0.00
2019-02-05T03:51:41.916Z,0.00
2019-02-05T03:52:41.884Z,0.00
2019-02-05T03:54:35.000Z,0.00
2019-02-05T03:55:34.955Z,0.00
2019-02-05T03:57:39.131Z,0.00
2019-02-05T03:58:39.102Z,0.00
2019-02-05T04:00:43.299Z,0.00
2019-02-05T04:01:43.259Z,0.00
2019-02-05T04:03:47.433Z,0.00
2019-02-05T04:04:47.405Z,0.00
2019-02-05T04:06:51.591Z,0.00
2019-02-05T04:07:51.556Z,0.00
2019-02-05T04:09:55.728Z,0.00
2019-02-05T04:10:55.694Z,0.00
2019-02-05T04:12:59.871Z,0.00
2019-02-05T04:13:59.835Z,0.00
2019-02-05T04:16:03.994Z,0.00
2019-02-05T04:17:03.998Z,0.00
2019-02-05T04:19:08.173Z,0.00
2019-02-05T04:20:08.117Z,0.00
2019-02-05T04:22:12.337Z,0.00
2019-02-05T04:23:12.298Z,0.00
2019-02-05T04:25:16.473Z,0.00
2019-02-05T04:26:16.439Z,0.00
2019-02-05T04:28:20.628Z,0.00
2019-02-05T04:29:20.587Z,0.00
2019-02-05T04:31:24.771Z,0.00
2019-02-05T04:32:24.731Z,0.00
2019-02-05T04:34:17.839Z,0.00
2019-02-05T04:35:17.799Z,0.00
2019-02-05T04:37:21.988Z,0.00
2019-02-05T04:38:21.963Z,0.00
2019-02-05T04:40:26.153Z,0.00
2019-02-05T04:41:26.105Z,0.00
2019-02-05T04:43:30.305Z,0.00
2019-02-05T04:44:30.267Z,0.00
2019-02-05T04:46:34.443Z,0.00
2019-02-05T04:47:34.414Z,0.00
2019-02-05T04:49:38.590Z,0.00
2019-02-05T04:50:38.555Z,0.00
2019-02-05T04:52:42.749Z,0.00
2019-02-05T04:53:42.697Z,0.00
2019-02-05T04:55:46.875Z,0.00
2019-02-05T04:56:46.841Z,0.00
2019-02-05T04:58:51.007Z,0.00
2019-02-05T04:59:50.980Z,0.00
2019-02-05T05:01:55.169Z,0.00
2019-02-05T05:02:55.119Z,0.00
2019-02-05T05:04:59.302Z,0.00
2019-02-05T05:05:59.263Z,0.00
2019-02-05T05:08:03.437Z,0.00
2019-02-05T05:09:03.408Z,0.00
2019-02-05T05:11:07.587Z,0.00
2019-02-05T05:12:07.547Z,0.00
2019-02-05T05:14:00.646Z,0.00
2019-02-05T05:15:00.759Z,0.00
2019-02-05T05:17:04.816Z,0.00
2019-02-05T05:18:04.767Z,0.00
2019-02-05T05:20:08.940Z,0.00
2019-02-05T05:21:08.912Z,0.00
2019-02-05T05:23:13.104Z,0.00
2019-02-05T05:24:13.054Z,0.00
2019-02-05T05:26:17.234Z,0.00
2019-02-05T05:27:17.204Z,0.00
2019-02-05T05:29:21.405Z,0.00
2019-02-05T05:30:21.366Z,0.00
2019-02-05T05:32:25.540Z,0.00
2019-02-05T05:33:25.512Z,0.00
2019-02-05T05:35:41.732Z,0.00
2019-02-05T05:36:29.657Z,0.00
2019-02-05T05:38:33.830Z,0.00
2019-02-05T05:39:33.799Z,0.00
2019-02-05T05:41:37.983Z,0.00
2019-02-05T05:42:37.939Z,0.00
2019-02-05T05:44:31.041Z,0.00
2019-02-05T05:45:31.008Z,0.00
2019-02-05T05:47:35.220Z,0.00
2019-02-05T05:48:35.184Z,0.00
2019-02-05T05:50:39.354Z,0.00
2019-02-05T05:51:39.342Z,0.00
2019-02-05T05:53:43.516Z,0.00
2019-02-05T05:54:43.490Z,0.00
2019-02-05T05:56:47.651Z,0.00
2019-02-05T05:57:47.615Z,0.00
2019-02-05T05:59:51.800Z,0.00
2019-02-05T06:00:51.762Z,0.00
2019-02-05T06:02:56.039Z,0.00
2019-02-05T06:03:55.912Z,0.00
2019-02-05T06:06:00.090Z,0.00
2019-02-05T06:07:00.054Z,0.00
2019-02-05T06:09:04.230Z,0.00
2019-02-05T06:10:07.005Z,0.00
2019-02-05T06:12:08.383Z,0.00
2019-02-05T06:13:08.341Z,0.00
2019-02-05T06:15:12.524Z,0.00
2019-02-05T06:16:12.493Z,0.00
2019-02-05T06:18:16.690Z,4.00
2019-02-05T06:19:16.650Z,4.00
2019-02-05T06:21:20.821Z,4.00
2019-02-05T06:22:20.786Z,4.00
2019-02-05T06:24:13.902Z,8.00
2019-02-05T06:25:13.864Z,8.00
2019-02-05T06:27:18.032Z,8.00
2019-02-05T06:28:18.016Z,8.00
2019-02-05T06:30:22.209Z,16.00
2019-02-05T06:31:22.148Z,16.00
2019-02-05T06:33:26.316Z,24.00
2019-02-05T06:34:26.281Z,28.00
2019-02-05T06:36:30.472Z,40.00
2019-02-05T06:37:30.425Z,44.00
2019-02-05T06:39:34.597Z,64.00
2019-02-05T06:40:34.567Z,72.00
2019-02-05T06:42:38.759Z,96.00
2019-02-05T06:43:38.719Z,112.00
2019-02-05T06:45:42.904Z,144.00
2019-02-05T06:46:42.875Z,160.00
2019-02-05T06:48:47.065Z,200.00
2019-02-05T06:49:47.015Z,224.00
2019-02-05T06:51:51.203Z,276.00
2019-02-05T06:52:51.160Z,300.00
2019-02-05T06:54:44.279Z,356.00
2019-02-05T06:55:44.240Z,388.00
2019-02-05T06:57:48.412Z,464.00
2019-02-05T06:58:48.388Z,500.00
2019-02-05T07:00:52.568Z,576.00
2019-02-05T07:01:52.525Z,612.00
2019-02-05T07:03:56.693Z,696.00
2019-02-05T07:04:56.663Z,736.00
2019-02-05T07:07:00.844Z,828.00
2019-02-05T07:08:00.806Z,892.00
2019-02-05T07:10:04.995Z,1100.00
2019-02-05T07:11:04.946Z,1192.00
2019-02-05T07:13:09.135Z,1380.00
2019-02-05T07:14:09.097Z,1472.00
2019-02-05T07:16:13.276Z,1676.00
2019-02-05T07:17:13.249Z,1784.00
2019-02-05T07:19:17.439Z,2032.00
2019-02-05T07:20:17.398Z,2140.00
2019-02-05T07:22:21.573Z,2432.00
2019-02-05T07:23:21.548Z,2536.00
2019-02-05T07:25:25.725Z,2800.00
2019-02-05T07:26:25.684Z,2928.00
2019-02-05T07:28:29.871Z,3192.00
2019-02-05T07:29:29.849Z,3340.00
2019-02-05T07:31:34.022Z,3628.00
2019-02-05T07:32:33.985Z,3792.00
2019-02-05T07:34:27.115Z,4048.00
2019-02-05T07:35:27.087Z,4208.00
2019-02-05T07:37:31.315Z,4504.00
2019-02-05T07:38:31.376Z,4664.00
2019-02-05T07:40:35.453Z,4944.00
2019-02-05T07:41:35.423Z,5088.00
2019-02-05T07:43:39.627Z,5388.00
2019-02-05T07:44:40.154Z,5492.00
2019-02-05T07:46:43.776Z,5768.00
2019-02-05T07:47:43.730Z,5868.00
2019-02-05T07:49:47.917Z,6168.00
2019-02-05T07:50:47.936Z,6280.00
2019-02-05T07:52:52.054Z,6676.00
2019-02-05T07:53:52.019Z,6816.00
2019-02-05T07:55:56.212Z,7276.00
2019-02-05T07:56:56.173Z,7512.00
2019-02-05T07:59:09.808Z,8060.00
2019-02-05T08:00:00.325Z,8380.00
2019-02-05T08:02:04.524Z,9036.00
2019-02-05T08:03:04.485Z,9296.00
2019-02-05T08:05:08.659Z,9796.00
2019-02-05T08:06:08.637Z,9960.00
2019-02-05T08:08:12.826Z,10320.00
2019-02-05T08:09:12.788Z,10424.00
2019-02-05T08:11:16.979Z,10692.00
2019-02-05T08:12:16.951Z,10820.00
2019-02-05T08:14:10.092Z,11024.00
2019-02-05T08:15:10.055Z,11128.00
2019-02-05T08:17:14.230Z,11316.00
2019-02-05T08:18:14.211Z,11460.00
2019-02-05T08:20:18.411Z,11608.00
2019-02-05T08:21:18.363Z,11676.00
2019-02-05T08:23:22.575Z,11860.00
2019-02-05T08:24:22.528Z,11988.00
2019-02-05T08:26:26.723Z,12148.00
2019-02-05T08:27:26.686Z,12212.00
2019-02-05T08:29:30.878Z,12436.00
2019-02-05T08:30:30.849Z,12488.00
2019-02-05T08:32:23.988Z,12636.00
2019-02-05T08:33:23.949Z,12720.00
2019-02-05T08:35:28.131Z,12896.00
2019-02-05T08:36:28.107Z,12972.00
2019-02-05T08:38:32.308Z,13060.00
2019-02-05T08:39:32.271Z,13136.00
2019-02-05T08:41:36.456Z,13276.00
2019-02-05T08:42:36.431Z,13340.00
2019-02-05T08:44:40.657Z,13436.00
2019-02-05T08:45:40.618Z,13496.00
2019-02-05T08:47:44.810Z,13492.00
2019-02-05T08:48:44.788Z,13480.00
2019-02-05T08:50:48.985Z,13504.00
2019-02-05T08:51:48.951Z,13484.00
2019-02-05T08:53:53.162Z,13488.00
2019-02-05T08:54:53.123Z,13472.00
2019-02-05T08:56:57.312Z,13492.00
2019-02-05T08:57:57.281Z,13468.00
2019-02-05T09:00:01.552Z,13440.00
2019-02-05T09:01:01.450Z,13460.00
2019-02-05T09:03:05.644Z,13460.00
2019-02-05T09:04:05.633Z,13412.00
2019-02-05T09:06:09.802Z,13440.00
2019-02-05T09:07:09.802Z,13432.00
2019-02-05T09:09:13.978Z,13360.00
2019-02-05T09:10:13.946Z,13356.00
2019-02-05T09:12:07.079Z,13336.00
2019-02-05T09:13:07.061Z,13312.00
2019-02-05T09:15:11.260Z,13328.00
2019-02-05T09:16:11.227Z,13280.00
2019-02-05T09:18:15.417Z,13184.00
2019-02-05T09:19:15.393Z,13084.00
2019-02-05T09:21:19.619Z,13204.00
2019-02-05T09:22:19.612Z,13096.00
2019-02-05T09:24:23.757Z,13092.00
2019-02-05T09:25:23.737Z,13056.00
2019-02-05T09:27:27.944Z,12960.00
2019-02-05T09:28:27.918Z,12876.00
2019-02-05T09:30:32.105Z,12900.00
2019-02-05T09:31:32.087Z,12896.00
2019-02-05T09:33:36.293Z,12896.00
2019-02-05T09:34:36.262Z,12820.00
2019-02-05T09:36:40.474Z,12744.00
2019-02-05T09:37:40.422Z,12660.00
2019-02-05T09:39:44.630Z,12588.00
2019-02-05T09:40:44.594Z,12552.00
2019-02-05T09:42:37.721Z,12504.00
2019-02-05T09:43:37.700Z,12544.00
2019-02-05T09:45:41.905Z,12412.00
2019-02-05T09:46:41.869Z,12384.00
2019-02-05T09:48:46.057Z,12284.00
2019-02-05T09:49:46.043Z,12268.00
2019-02-05T09:51:51.023Z,12208.00
2019-02-05T09:52:50.407Z,12192.00
2019-02-05T09:54:54.593Z,12008.00
2019-02-05T09:55:54.574Z,11932.00
2019-02-05T09:57:58.776Z,11832.00
2019-02-05T09:58:58.745Z,11756.00
2019-02-05T10:01:02.934Z,11680.00
2019-02-05T10:02:02.918Z,11640.00
2019-02-05T10:04:07.141Z,11544.00
2019-02-05T10:05:07.109Z,11532.00
2019-02-05T10:07:11.302Z,11376.00
2019-02-05T10:08:11.283Z,11352.00
2019-02-05T10:10:15.500Z,11228.00
2019-02-05T10:11:15.466Z,11188.00
2019-02-05T10:13:19.665Z,11096.00
2019-02-05T10:14:19.628Z,11032.00
2019-02-05T10:16:23.831Z,10980.00
2019-02-05T10:17:23.802Z,10916.00
2019-02-05T10:19:28.055Z,10884.00
2019-02-05T10:20:27.982Z,10840.00
2019-02-05T10:22:21.129Z,10724.00
2019-02-05T10:23:21.095Z,10680.00
2019-02-05T10:25:25.297Z,10616.00
2019-02-05T10:26:25.279Z,10624.00
2019-02-05T10:28:29.514Z,10608.00
2019-02-05T10:29:29.495Z,10588.00
2019-02-05T10:31:33.680Z,10544.00
2019-02-05T10:32:33.662Z,10464.00
2019-02-05T10:34:37.871Z,10452.00
2019-02-05T10:35:37.901Z,10400.00
2019-02-05T10:37:42.037Z,10352.00
2019-02-05T10:38:42.020Z,10304.00
2019-02-05T10:40:46.224Z,10236.00
2019-02-05T10:41:46.201Z,10184.00
2019-02-05T10:43:50.398Z,10088.00
2019-02-05T10:44:50.389Z,10052.00
2019-02-05T10:46:54.598Z,9928.00
2019-02-05T10:47:54.578Z,9908.00
2019-02-05T10:49:58.770Z,9920.00
2019-02-05T10:50:58.742Z,9836.00
2019-02-05T10:53:02.992Z,9796.00
2019-02-05T10:54:02.932Z,9772.00
2019-02-05T10:56:07.136Z,9692.00
2019-02-05T10:57:07.122Z,9704.00
2019-02-05T10:59:11.329Z,9612.00
2019-02-05T11:00:11.311Z,9560.00
2019-02-05T11:02:04.437Z,9492.00
2019-02-05T11:03:04.421Z,9444.00
2019-02-05T11:05:08.630Z,9324.00
2019-02-05T11:06:08.599Z,9376.00
2019-02-05T11:08:12.800Z,9300.00
2019-02-05T11:09:12.794Z,9292.00
2019-02-05T11:11:16.983Z,9232.00
2019-02-05T11:12:16.959Z,9196.00
2019-02-05T11:14:21.159Z,9064.00
2019-02-05T11:15:21.141Z,9008.00
2019-02-05T11:17:25.350Z,8960.00
2019-02-05T11:18:25.324Z,8884.00
2019-02-05T11:20:29.530Z,8776.00
2019-02-05T11:21:29.513Z,8760.00
2019-02-05T11:23:33.734Z,8632.00
2019-02-05T11:24:33.788Z,8612.00
2019-02-05T11:26:37.900Z,8560.00
2019-02-05T11:27:37.876Z,8484.00
2019-02-05T11:29:42.656Z,8356.00
2019-02-05T11:30:42.265Z,8320.00
2019-02-05T11:32:35.368Z,8328.00
2019-02-05T11:33:35.350Z,8324.00
2019-02-05T11:35:39.587Z,8268.00
2019-02-05T11:36:39.561Z,8212.00
2019-02-05T11:38:43.755Z,7712.00
2019-02-05T11:39:43.741Z,7936.00
2019-02-05T11:41:47.940Z,7664.00
2019-02-05T11:42:47.918Z,8128.00
2019-02-05T11:44:52.126Z,8420.00
2019-02-05T11:45:52.107Z,8548.00
2019-02-05T11:47:56.313Z,8696.00
2019-02-05T11:48:56.285Z,8584.00
2019-02-05T11:51:00.507Z,7880.00
2019-02-05T11:52:00.465Z,7240.00
2019-02-05T11:54:04.671Z,7248.00
2019-02-05T11:55:04.642Z,7232.00
2019-02-05T11:57:08.837Z,7100.00
2019-02-05T11:58:08.824Z,7180.00
2019-02-05T12:00:13.052Z,7000.00
2019-02-05T12:01:13.023Z,6908.00
2019-02-05T12:03:17.240Z,6928.00
2019-02-05T12:04:17.216Z,6892.00
2019-02-05T12:06:21.426Z,6792.00
2019-02-05T12:07:21.398Z,6740.00
2019-02-05T12:09:25.607Z,6404.00
2019-02-05T12:10:25.581Z,6484.00
2019-02-05T12:12:18.716Z,6368.00
2019-02-05T12:13:18.690Z,6324.00
2019-02-05T12:15:22.884Z,6200.00
2019-02-05T12:16:22.878Z,6132.00
2019-02-05T12:18:27.204Z,6008.00
2019-02-05T12:19:27.047Z,5932.00
2019-02-05T12:21:31.255Z,5784.00
2019-02-05T12:22:31.233Z,5696.00
2019-02-05T12:24:35.442Z,5532.00
2019-02-05T12:25:35.419Z,5480.00
2019-02-05T12:27:39.618Z,5344.00
2019-02-05T12:28:39.601Z,5288.00
2019-02-05T12:30:45.396Z,5112.00
2019-02-05T12:31:43.802Z,5024.00
2019-02-05T12:33:47.983Z,4904.00
2019-02-05T12:34:47.972Z,4888.00
2019-02-05T12:36:52.193Z,4856.00
2019-02-05T12:37:52.158Z,4840.00
2019-02-05T12:39:56.359Z,4772.00
2019-02-05T12:40:56.336Z,4740.00
2019-02-05T12:43:00.538Z,4692.00
2019-02-05T12:44:00.509Z,4668.00
2019-02-05T12:46:04.709Z,4628.00
2019-02-05T12:47:04.692Z,4616.00
2019-02-05T12:49:08.894Z,4564.00
2019-02-05T12:50:08.865Z,4544.00
2019-02-05T12:52:02.003Z,4484.00
2019-02-05T12:53:02.004Z,4460.00
2019-02-05T12:55:13.902Z,4432.00
2019-02-05T12:56:06.169Z,4428.00
2019-02-05T12:58:10.384Z,4412.00
2019-02-05T12:59:10.350Z,4408.00
2019-02-05T13:01:14.552Z,4392.00
2019-02-05T13:02:14.540Z,4384.00
2019-02-05T13:04:19.683Z,4376.00
2019-02-05T13:05:18.905Z,4380.00
2019-02-05T13:07:23.114Z,4408.00
2019-02-05T13:08:23.083Z,4432.00
2019-02-05T13:10:27.276Z,4496.00
2019-02-05T13:11:27.266Z,4556.00
2019-02-05T13:13:31.477Z,4684.00
2019-02-05T13:14:31.448Z,4696.00
2019-02-05T13:16:35.648Z,4696.00
2019-02-05T13:17:35.635Z,4688.00
2019-02-05T13:19:39.881Z,4608.00
2019-02-05T13:20:39.816Z,4544.00
2019-02-05T13:22:32.938Z,4444.00
2019-02-05T13:23:32.926Z,4404.00
2019-02-05T13:25:37.131Z,4340.00
2019-02-05T13:26:37.101Z,4312.00
2019-02-05T13:28:42.332Z,4252.00
2019-02-05T13:29:42.287Z,4236.00
2019-02-05T13:31:46.499Z,4240.00
2019-02-05T13:32:46.470Z,4248.00
2019-02-05T13:34:50.668Z,4260.00
2019-02-05T13:35:50.655Z,4260.00
2019-02-05T13:37:54.853Z,4268.00
2019-02-05T13:38:54.856Z,4280.00
2019-02-05T13:40:59.046Z,4260.00
2019-02-05T13:41:59.026Z,4268.00
2019-02-05T13:44:03.214Z,4236.00
2019-02-05T13:45:03.205Z,4132.00
2019-02-05T13:47:07.408Z,3512.00
2019-02-05T13:48:07.381Z,3348.00
2019-02-05T13:50:11.570Z,3300.00
2019-02-05T13:51:11.551Z,3300.00
2019-02-05T13:53:15.758Z,3276.00
2019-02-05T13:54:15.731Z,3288.00
2019-02-05T13:56:19.940Z,3264.00
2019-02-05T13:57:19.931Z,3300.00
2019-02-05T13:59:24.132Z,3320.00
2019-02-05T14:00:24.094Z,3332.00
2019-02-05T14:02:17.221Z,3340.00
2019-02-05T14:03:17.202Z,3344.00
2019-02-05T14:05:21.398Z,3300.00
2019-02-05T14:06:21.364Z,3272.00
2019-02-05T14:08:25.559Z,3268.00
2019-02-05T14:09:25.637Z,3308.00
2019-02-05T14:11:29.737Z,3388.00
2019-02-05T14:12:29.707Z,3428.00
2019-02-05T14:14:33.893Z,3480.00
2019-02-05T14:15:33.870Z,3476.00
2019-02-05T14:17:38.086Z,3428.00
2019-02-05T14:18:38.046Z,3400.00
2019-02-05T14:20:42.238Z,3320.00
2019-02-05T14:21:42.223Z,3248.00
2019-02-05T14:23:46.416Z,3148.00
2019-02-05T14:24:46.388Z,3108.00
2019-02-05T14:26:50.565Z,3068.00
2019-02-05T14:27:50.551Z,3052.00
2019-02-05T14:29:54.750Z,3016.00
2019-02-05T14:30:54.712Z,3000.00
2019-02-05T14:34:30.777Z,2900.00
2019-02-05T14:35:30.752Z,2824.00
2019-02-05T14:37:34.946Z,2724.00
2019-02-05T14:38:34.914Z,2668.00
2019-02-05T14:40:39.105Z,2608.00
2019-02-05T14:41:39.082Z,2576.00
2019-02-05T14:43:43.294Z,2548.00
2019-02-05T14:44:43.244Z,2512.00
2019-02-05T14:46:47.429Z,2468.00
2019-02-05T14:47:47.408Z,2444.00
2019-02-05T14:49:51.608Z,2336.00
2019-02-05T14:50:51.570Z,2292.00
2019-02-05T14:52:55.769Z,2172.00
2019-02-05T14:53:55.746Z,2156.00
2019-02-05T14:55:59.940Z,2124.00
2019-02-05T14:56:59.902Z,2104.00
2019-02-05T14:59:04.090Z,2076.00
2019-02-05T15:00:04.068Z,2076.00
2019-02-05T15:02:08.268Z,2116.00
2019-02-05T15:03:08.234Z,2128.00
2019-02-05T15:05:12.425Z,2144.00
2019-02-05T15:06:12.400Z,2148.00
2019-02-05T15:08:16.604Z,2176.00
2019-02-05T15:09:16.566Z,2160.00
2019-02-05T15:11:20.752Z,2076.00
2019-02-05T15:12:20.734Z,2044.00
2019-02-05T15:14:13.913Z,1984.00
2019-02-05T15:15:13.855Z,1956.00
2019-02-05T15:17:18.045Z,1900.00
2019-02-05T15:18:18.022Z,1876.00
2019-02-05T15:20:22.242Z,1856.00
2019-02-05T15:21:22.178Z,1860.00
2019-02-05T15:23:26.361Z,1864.00
2019-02-05T15:24:36.905Z,1872.00
2019-02-05T15:26:30.536Z,1872.00
2019-02-05T15:27:30.508Z,1840.00
2019-02-05T15:29:34.687Z,1744.00
2019-02-05T15:30:34.665Z,1704.00
2019-02-05T15:32:38.861Z,1620.00
2019-02-05T15:33:38.829Z,1616.00
2019-02-05T15:35:43.016Z,1612.00
2019-02-05T15:36:42.991Z,1596.00
2019-02-05T15:38:47.185Z,1564.00
2019-02-05T15:39:47.148Z,1544.00
2019-02-05T15:41:51.339Z,1508.00
2019-02-05T15:42:51.316Z,1492.00
2019-02-05T15:44:44.534Z,1484.00
2019-02-05T15:45:44.402Z,1480.00
2019-02-05T15:47:48.628Z,1468.00
2019-02-05T15:48:48.561Z,1460.00
2019-02-05T15:50:52.756Z,1424.00
2019-02-05T15:51:52.722Z,1404.00
2019-02-05T15:53:56.899Z,1356.00
2019-02-05T15:54:56.878Z,1328.00
2019-02-05T15:57:01.075Z,1288.00
2019-02-05T15:58:01.048Z,1272.00
2019-02-05T16:00:05.222Z,1232.00
2019-02-05T16:01:05.207Z,1204.00
2019-02-05T16:03:09.395Z,1144.00
2019-02-05T16:04:09.355Z,1116.00
2019-02-05T16:06:13.550Z,1048.00
2019-02-05T16:07:13.513Z,1004.00
2019-02-05T16:09:17.713Z,924.00
2019-02-05T16:10:17.675Z,884.00
2019-02-05T16:12:21.908Z,804.00
2019-02-05T16:13:21.833Z,760.00
2019-02-05T16:15:26.038Z,680.00
2019-02-05T16:16:26.005Z,648.00
2019-02-05T16:18:30.198Z,576.00
2019-02-05T16:19:30.169Z,540.00
2019-02-05T16:21:34.357Z,472.00
2019-02-05T16:22:34.321Z,440.00
2019-02-05T16:24:27.433Z,380.00
2019-02-05T16:25:27.406Z,344.00
2019-02-05T16:27:31.602Z,284.00
2019-02-05T16:28:31.566Z,252.00
2019-02-05T16:30:35.739Z,200.00
2019-02-05T16:31:35.734Z,176.00
2019-02-05T16:33:39.912Z,136.00
2019-02-05T16:34:39.883Z,124.00
2019-02-05T16:36:44.054Z,92.00
2019-02-05T16:37:44.025Z,80.00
2019-02-05T16:39:48.219Z,60.00
2019-02-05T16:40:48.182Z,52.00
2019-02-05T16:42:53.243Z,40.00
2019-02-05T16:43:53.222Z,32.00
2019-02-05T16:45:58.259Z,24.00
2019-02-05T16:46:58.257Z,20.00
2019-02-05T16:49:02.401Z,16.00
2019-02-05T16:50:02.376Z,8.00
2019-02-05T16:52:06.578Z,8.00
2019-02-05T16:53:06.532Z,8.00
2019-02-05T16:55:10.718Z,4.00
2019-02-05T16:56:10.692Z,4.00
2019-02-05T16:58:14.877Z,0.00
2019-02-05T16:59:14.854Z,4.00
2019-02-05T17:01:19.022Z,0.00
2019-02-05T17:02:28.560Z,0.00
2019-02-05T17:04:12.151Z,0.00
2019-02-05T17:05:12.109Z,0.00
2019-02-05T17:07:16.302Z,0.00
2019-02-05T17:08:16.270Z,0.00
2019-02-05T17:10:20.464Z,0.00
2019-02-05T17:11:20.424Z,0.00
2019-02-05T17:13:24.601Z,0.00
2019-02-05T17:14:24.576Z,0.00
2019-02-05T17:16:28.804Z,0.00
2019-02-05T17:17:28.750Z,0.00
2019-02-05T17:19:32.941Z,0.00
2019-02-05T17:20:32.930Z,0.00
2019-02-05T17:22:37.106Z,0.00
2019-02-05T17:23:37.076Z,0.00
2019-02-05T17:25:30.394Z,0.00
2019-02-05T17:26:30.359Z,0.00
2019-02-05T17:28:34.561Z,0.00
2019-02-05T17:29:34.630Z,0.00
2019-02-05T17:31:38.700Z,0.00
2019-02-05T17:32:40.370Z,0.00
2019-02-05T17:34:31.790Z,0.00
2019-02-05T17:35:31.751Z,0.00
2019-02-05T17:37:35.924Z,0.00
2019-02-05T17:38:35.909Z,0.00
2019-02-05T17:40:40.085Z,0.00
2019-02-05T17:41:40.052Z,0.00
2019-02-05T17:43:44.229Z,0.00
2019-02-05T17:44:44.209Z,0.00
2019-02-05T17:46:48.396Z,0.00
2019-02-05T17:47:48.417Z,0.00
2019-02-05T17:49:52.531Z,0.00
2019-02-05T17:50:52.505Z,0.00
2019-02-05T17:52:56.704Z,0.00
2019-02-05T17:53:56.660Z,0.00
2019-02-05T17:56:00.844Z,0.00
2019-02-05T17:57:00.811Z,0.00
2019-02-05T17:59:05.012Z,0.00
2019-02-05T18:00:04.968Z,0.00
2019-02-05T18:02:09.172Z,0.00
2019-02-05T18:03:09.139Z,0.00
2019-02-05T18:05:13.340Z,0.00
2019-02-05T18:06:13.309Z,0.00
2019-02-05T18:08:17.480Z,0.00
2019-02-05T18:09:17.448Z,0.00
2019-02-05T18:11:21.649Z,0.00
2019-02-05T18:12:21.616Z,0.00
2019-02-05T18:14:14.724Z,0.00
2019-02-05T18:15:14.687Z,0.00
2019-02-05T18:17:18.879Z,0.00
2019-02-05T18:18:18.842Z,0.00
2019-02-05T18:20:23.012Z,0.00
2019-02-05T18:21:23.006Z,0.00
2019-02-05T18:23:27.182Z,0.00
2019-02-05T18:24:27.154Z,0.00
2019-02-05T18:26:31.316Z,0.00
2019-02-05T18:27:31.289Z,0.00
2019-02-05T18:29:35.479Z,0.00
2019-02-05T18:30:35.448Z,0.00
2019-02-05T18:32:39.618Z,0.00
2019-02-05T18:33:39.591Z,0.00
2019-02-05T18:35:43.783Z,0.00
2019-02-05T18:36:43.847Z,0.00
2019-02-05T18:38:47.931Z,0.00
2019-02-05T18:39:47.899Z,0.00
2019-02-05T18:41:52.094Z,0.00
2019-02-05T18:42:52.051Z,0.00
2019-02-05T18:44:47.995Z,0.00
2019-02-05T18:45:45.132Z,0.00
2019-02-05T18:47:49.381Z,0.00
2019-02-05T18:48:49.275Z,0.00
2019-02-05T18:50:53.452Z,0.00
2019-02-05T18:51:53.422Z,0.00
2019-02-05T18:53:57.612Z,0.00
2019-02-05T18:54:57.570Z,0.00
2019-02-05T18:57:01.750Z,0.00
2019-02-05T18:58:08.817Z,0.00
2019-02-05T19:00:05.917Z,0.00
2019-02-05T19:01:05.876Z,0.00
2019-02-05T19:03:15.382Z,0.00
2019-02-05T19:04:10.022Z,0.00
2019-02-05T19:06:14.217Z,0.00
2019-02-05T19:07:14.177Z,0.00
2019-02-05T19:09:18.346Z,0.00
2019-02-05T19:10:18.320Z,0.00
2019-02-05T19:12:22.505Z,0.00
2019-02-05T19:13:22.464Z,0.00
2019-02-05T19:15:26.649Z,0.00
2019-02-05T19:16:26.626Z,0.00